Time;durP1;ratioP1;P1;durP2;ratioP2;P2;SDS_P1;SDS_P2;PMS_P1;PMS_P2;Temp;Humidity;BMP_temperature;BMP_pressure;BME280_temperature;BME280_humidity;BME280_pressure;Samples;Min_cycle;Max_cycle;Signal;HPM_P1;HPM_P2
2023/09/29 00:00:17;;;;;;;12.25;8.95;;;;;;;24.70;49.27;100920.50;41141497;28;20073;-62
2023/09/29 00:20:24;;;;;;;10.95;8.27;;;;;;;24.69;48.97;100916.19;41135025;28;20050;-62
2023/09/29 00:40:25;;;;;;;9.73;8.23;;;;;;;24.65;48.92;100922.69;41134707;28;20054;-63
2023/09/29 01:20:30;;;;;;;11.25;8.68;;;;;;;24.59;49.00;100905.50;41146085;28;20122;-62
2023/09/29 01:40:30;;;;;;;11.02;8.68;;;;;;;24.57;48.69;100902.16;41173229;28;20137;-62
2023/09/29 02:00:31;;;;;;;11.27;8.50;;;;;;;24.53;48.69;100903.38;41163632;28;21020;-63
2023/09/29 02:20:31;;;;;;;10.82;8.25;;;;;;;24.49;48.71;100904.59;41164536;28;20046;-62
2023/09/29 02:40:32;;;;;;;9.90;8.63;;;;;;;24.45;48.53;100904.00;41152708;28;20057;-61
2023/09/29 03:00:32;;;;;;;10.00;8.50;;;;;;;24.41;48.46;100904.38;41156869;28;20112;-62
2023/09/29 03:20:33;;;;;;;10.27;8.43;;;;;;;24.26;48.54;100874.75;41144130;28;20169;-62
2023/09/29 03:40:33;;;;;;;11.90;8.60;;;;;;;24.35;48.40;100891.66;41144881;28;20524;-60
2023/09/29 04:00:34;;;;;;;10.43;8.05;;;;;;;24.39;48.95;100915.13;41142869;28;20050;-62
2023/09/29 04:20:34;;;;;;;15.35;10.23;;;;;;;24.46;49.03;100916.28;41128224;28;20054;-63
2023/09/29 04:40:35;;;;;;;13.68;9.98;;;;;;;24.39;49.49;100925.69;41123075;28;20069;-63
2023/09/29 05:00:36;;;;;;;26.75;10.45;;;;;;;24.19;48.69;100911.44;41131025;28;20500;-62
2023/09/29 05:20:36;;;;;;;23.00;11.88;;;;;;;23.22;46.23;100908.56;41175981;28;20054;-61
2023/09/29 05:40:38;;;;;;;15.32;8.82;;;;;;;24.11;46.70;100945.66;41167904;28;20057;-60
2023/09/29 06:00:39;;;;;;;19.65;9.38;;;;;;;23.98;47.80;100953.72;41155258;28;20134;-62
2023/09/29 06:20:39;;;;;;;18.27;6.72;;;;;;;22.59;46.46;100967.00;41159258;28;20058;-63
2023/09/29 06:40:40;;;;;;;18.45;9.75;;;;;;;21.23;48.16;100972.16;41161877;28;20047;-61
2023/09/29 07:00:40;;;;;;;13.68;7.57;;;;;;;20.44;49.89;100966.78;41157142;28;20133;-64
2023/09/29 07:20:43;;;;;;;15.13;8.27;;;;;;;20.23;51.39;100979.56;41163450;28;20116;-65
2023/09/29 07:40:44;;;;;;;16.15;6.35;;;;;;;21.36;48.53;101014.28;41180170;28;20542;-66
2023/09/29 08:00:44;;;;;;;40.88;8.55;;;;;;;21.10;49.40;101001.94;41175187;28;20080;-65
2023/09/29 08:20:45;;;;;;;21.98;9.25;;;;;;;22.46;46.57;101009.28;41158073;28;20118;-65
2023/09/29 08:40:46;;;;;;;71.78;8.85;;;;;;;22.62;46.54;101006.34;41179640;28;20043;-65
2023/09/29 09:00:47;;;;;;;23.65;6.65;;;;;;;22.99;44.85;101004.44;41152210;28;20059;-65
2023/09/29 09:20:52;;;;;;;9.50;5.72;;;;;;;23.54;44.60;100984.53;41152549;28;20225;-65
2023/09/29 09:40:53;;;;;;;11.45;6.15;;;;;;;24.04;42.68;100986.81;41158389;28;20541;-66
2023/09/29 10:00:56;;;;;;;11.63;5.25;;;;;;;24.17;42.56;100982.19;41163802;28;20079;-66
2023/09/29 10:21:05;;;;;;;8.90;5.18;;;;;;;24.90;41.43;100955.94;41173421;28;20046;-66
2023/09/29 10:41:07;;;;;;;9.73;5.32;;;;;;;25.43;42.06;100946.19;41165698;28;20054;-67
2023/09/29 11:01:08;;;;;;;6.78;4.90;;;;;;;25.82;40.84;100914.47;41154405;28;20129;-66
2023/09/29 11:21:12;;;;;;;14.98;5.50;;;;;;;27.19;37.93;100892.28;41159790;28;20110;-66
2023/09/29 11:41:15;;;;;;;8.15;4.53;;;;;;;27.86;35.58;100878.75;41181830;28;20051;-67
2023/09/29 12:01:17;;;;;;;8.98;4.70;;;;;;;28.68;32.45;100849.31;41156790;28;20074;-67
2023/09/29 12:21:17;;;;;;;12.73;4.88;;;;;;;29.64;31.12;100819.88;41182326;28;20093;-67
2023/09/29 12:41:18;;;;;;;13.50;4.80;;;;;;;29.99;30.66;100769.84;41180377;28;20076;-65
2023/09/29 13:01:18;;;;;;;15.40;5.50;;;;;;;31.23;29.29;100766.81;41175480;28;20065;-68
2023/09/29 13:21:19;;;;;;;8.25;4.57;;;;;;;32.13;27.21;100775.13;41188018;28;20105;-67
2023/09/29 13:41:19;;;;;;;;;;;;;;;31.07;26.40;100762.34;41208741;28;21326;-69
2023/09/29 14:01:19;;;;;;;20.30;4.87;;;;;;;34.35;24.25;100733.53;41184376;28;19925;-70
2023/09/29 14:21:20;;;;;;;7.68;4.35;;;;;;;34.40;22.77;100709.59;41190148;28;20150;-70
2023/09/29 14:41:20;;;;;;;9.95;4.40;;;;;;;29.32;27.46;100730.78;41165647;28;20046;-70
2023/09/29 15:01:21;;;;;;;16.08;4.00;;;;;;;29.15;28.17;100716.56;41164608;28;20272;-73
2023/09/29 15:21:21;;;;;;;8.57;4.10;;;;;;;27.99;29.74;100678.75;41210972;28;20495;-73
2023/09/29 15:41:22;;;;;;;11.63;4.40;;;;;;;27.44;28.36;100717.06;41223400;28;20043;-73
2023/09/29 16:01:22;;;;;;;14.85;7.00;;;;;;;26.36;37.85;100713.16;41226354;28;20073;-75
2023/09/29 16:21:23;;;;;;;12.60;6.00;;;;;;;26.15;35.47;100721.34;41211335;28;20099;-70
2023/09/29 16:41:29;;;;;;;14.07;6.13;;;;;;;25.54;34.04;100749.84;41202962;28;20046;-70
2023/09/29 17:01:29;;;;;;;16.15;7.20;;;;;;;25.40;35.13;100742.31;41211084;28;20065;-69
2023/09/29 17:21:31;;;;;;;19.48;6.40;;;;;;;24.36;40.42;100723.97;41230677;28;20046;-78
2023/09/29 17:41:31;;;;;;;311.48;15.88;;;;;;;24.40;41.97;100776.50;41243612;28;20055;-82
2023/09/29 18:01:32;;;;;;;24.40;7.38;;;;;;;24.54;40.61;100787.72;41217607;28;20058;-75
2023/09/29 18:21:33;;;;;;;21.75;8.15;;;;;;;24.64;44.57;100793.91;41224270;28;20078;-76
2023/09/29 18:41:35;;;;;;;22.75;8.98;;;;;;;22.83;44.08;100779.50;41200346;28;20101;-76
2023/09/29 19:01:36;;;;;;;21.55;9.07;;;;;;;23.52;44.66;100804.88;41192092;28;20046;-76
2023/09/29 19:21:38;;;;;;;17.52;9.15;;;;;;;24.29;44.56;100805.69;41193356;28;20510;-76
2023/09/29 19:41:39;;;;;;;22.42;9.43;;;;;;;23.80;44.21;100816.72;41182389;28;20532;-76
2023/09/29 20:01:41;;;;;;;20.65;9.70;;;;;;;24.17;44.10;100812.84;41160189;28;20063;-76
2023/09/29 20:21:42;;;;;;;27.10;9.73;;;;;;;24.26;43.98;100813.88;41187305;28;20142;-81
2023/09/29 20:41:43;;;;;;;21.15;9.40;;;;;;;24.34;44.94;100822.03;41203831;28;20560;-80
2023/09/29 21:01:43;;;;;;;21.15;9.75;;;;;;;24.02;45.63;100769.16;41171401;28;20050;-80
2023/09/29 21:21:44;;;;;;;23.08;9.75;;;;;;;24.36;46.13;100829.84;41204881;28;20482;-80
2023/09/29 21:41:46;;;;;;;14.75;9.20;;;;;;;24.26;46.19;100832.41;41183503;28;20054;-81
2023/09/29 22:01:46;;;;;;;14.63;9.63;;;;;;;24.21;46.03;100819.56;41224716;28;20085;-80
2023/09/29 22:21:46;;;;;;;15.60;9.23;;;;;;;24.23;45.73;100828.22;41208148;28;20074;-80
2023/09/29 22:41:48;;;;;;;11.70;8.65;;;;;;;24.06;45.55;100787.31;41188243;28;20045;-80
2023/09/29 23:01:49;;;;;;;11.10;8.50;;;;;;;24.21;45.46;100822.22;41207506;28;20053;-80
2023/09/29 23:21:52;;;;;;;13.77;8.85;;;;;;;24.13;45.65;100811.41;41205982;28;20043;-80
2023/09/29 23:41:54;;;;;;;11.40;8.88;;;;;;;24.21;45.51;100837.25;41177286;28;20058;-81
